Time;durP1;ratioP1;P1;durP2;ratioP2;P2;SDS_P1;SDS_P2;PMS_P1;PMS_P2;Temp;Humidity;BMP_temperature;BMP_pressure;BME280_temperature;BME280_humidity;BME280_pressure;Samples;Min_cycle;Max_cycle;Signal;HPM_P1;HPM_P2
2022/01/08 00:02:00;;;;;;;;;;;;;;;16.09;44.45;100488.00;5034315;28;19971;-71
2022/01/08 00:04:25;;;;;;;;;;;;;;;15.99;44.90;100485.81;5034199;28;20000;-71
2022/01/08 00:06:51;;;;;;;;;;;;;;;16.20;44.25;100474.50;5034142;28;19963;-71
2022/01/08 00:09:16;;;;;;;;;;;;;;;16.07;45.06;100468.28;5034221;28;19966;-72
2022/01/08 00:11:42;;;;;;;;;;;;;;;15.95;45.62;100454.63;5016392;28;20007;-71
2022/01/08 00:14:10;;;;;;;;;;;;;;;16.27;44.59;100447.09;5034081;28;19975;-72
2022/01/08 00:16:37;;;;;;;;;;;;;;;16.26;44.87;100437.25;5033936;28;19963;-71
2022/01/08 00:19:03;;;;;;;;;;;;;;;16.22;44.82;100430.84;5033988;28;19917;-78
2022/01/08 00:21:28;;;;;;;;;;;;;;;16.42;44.30;100417.91;5033967;28;20517;-71
2022/01/08 00:23:54;;;;;;;;;;;;;;;16.41;44.64;100424.59;5033742;28;19917;-71
2022/01/08 00:26:19;;;;;;;;;;;;;;;16.37;44.98;100410.69;5033831;28;20012;-76
2022/01/08 00:28:45;;;;;;;;;;;;;;;16.59;44.18;100400.16;5016034;28;20383;-71
2022/01/08 00:31:10;;;;;;;;;;;;;;;16.54;44.40;100392.94;5033645;28;19931;-72
2022/01/08 00:33:37;;;;;;;;;;;;;;;16.54;44.72;100381.13;5033915;28;19917;-71
2022/01/08 00:36:04;;;;;;;;;;;;;;;16.59;44.71;100376.13;5033646;28;19932;-72
2022/01/08 00:38:29;;;;;;;;;;;;;;;16.74;44.59;100374.47;5033622;28;19921;-71
2022/01/08 00:40:55;;;;;;;;;;;;;;;16.76;44.62;100361.13;5033577;28;19924;-71
2022/01/08 00:43:20;;;;;;;;;;;;;;;16.77;44.68;100353.63;5015820;28;19917;-71
2022/01/08 00:45:47;;;;;;;;;;;;;;;16.80;44.29;100339.91;5033174;28;20311;-71
2022/01/08 00:48:12;;;;;;;;;;;;;;;16.74;44.45;100335.84;5014961;28;19917;-72
2022/01/08 00:50:37;;;;;;;;;;;;;;;16.72;44.81;100327.16;5033356;28;19967;-71
2022/01/08 00:53:03;;;;;;;;;;;;;;;16.70;44.86;100328.66;5033402;28;19917;-71
2022/01/08 00:55:28;;;;;;;;;;;;;;;16.67;45.16;100307.31;5033383;28;20338;-71
2022/01/08 00:57:55;;;;;;;;;;;;;;;16.73;44.70;100295.63;5033293;28;20348;-71
2022/01/08 01:00:21;;;;;;;;;;;;;;;16.73;44.74;100287.38;5015530;28;20434;-72
2022/01/08 01:02:46;;;;;;;;;;;;;;;16.60;45.02;100280.38;5033302;28;20004;-71
2022/01/08 01:05:12;;;;;;;;;;;;;;;16.54;45.34;100281.81;5033116;28;19917;-71
2022/01/08 01:07:38;;;;;;;;;;;;;;;16.63;45.26;100274.16;5015490;28;19978;-71
2022/01/08 01:10:05;;;;;;;;;;;;;;;16.75;44.96;100264.94;5033105;28;19917;-71
2022/01/08 01:12:30;;;;;;;;;;;;;;;16.74;44.84;100252.28;5033082;28;20303;-71
2022/01/08 01:14:56;;;;;;;;;;;;;;;16.81;44.73;100247.72;5033008;28;19924;-71
2022/01/08 01:17:21;;;;;;;;;;;;;;;16.89;44.73;100243.91;5032576;28;19917;-72
2022/01/08 01:19:48;;;;;;;;;;;;;;;16.87;44.70;100239.94;5032932;28;19917;-71
2022/01/08 01:22:17;;;;;;;;;;;;;;;16.83;44.86;100245.38;5032895;28;19975;-71
2022/01/08 01:24:43;;;;;;;;;;;;;;;16.89;44.51;100232.06;5032805;28;20063;-71
2022/01/08 01:30:02;;;;;;;;;;;;;;;16.60;45.51;100223.25;5032883;28;19917;-71
2022/01/08 01:48:52;;;;;;;;;;;;;;;16.60;45.62;100157.06;5033069;28;19923;-71
2022/01/08 01:51:22;;;;;;;;;;;;;;;16.74;45.42;100140.00;5032724;28;19913;-71
2022/01/08 01:53:48;;;;;;;;;;;;;;;16.71;45.78;100129.69;5032654;28;19963;-71
2022/01/08 01:56:17;;;;;;;;;;;;;;;16.70;45.71;100130.88;5032530;28;19913;-71
2022/01/08 01:58:43;;;;;;;;;;;;;;;16.79;45.64;100122.34;5013460;28;19924;-73
2022/01/08 02:01:08;;;;;;;;;;;;;;;16.68;46.00;100111.09;5032486;28;19913;-71
2022/01/08 02:03:34;;;;;;;;;;;;;;;16.74;45.94;100092.28;5032595;28;19917;-71
2022/01/08 02:06:00;;;;;;;;;;;;;;;16.62;46.27;100088.56;5032782;28;19917;-71
2022/01/08 02:08:25;;;;;;;;;;;;;;;16.65;46.21;100076.78;5014782;28;20360;-71
2022/01/08 02:10:51;;;;;;;;;;;;;;;16.74;46.00;100065.50;5032517;28;19917;-71
2022/01/08 02:13:26;;;;;;;;;;;;;;;16.65;46.35;100056.66;5032437;28;19917;-71
2022/01/08 02:15:53;;;;;;;;;;;;;;;16.71;46.11;100046.94;5032525;28;19956;-71
2022/01/08 02:18:19;;;;;;;;;;;;;;;16.75;45.84;100024.91;5032437;28;19921;-71
2022/01/08 02:20:45;;;;;;;;;;;;;;;16.73;46.11;100010.72;5014452;28;20391;-72
2022/01/08 02:23:10;;;;;;;;;;;;;;;16.62;46.25;100014.09;5032386;28;19937;-71
2022/01/08 02:25:36;;;;;;;;;;;;;;;16.59;46.48;100003.78;5031485;28;19924;-71
2022/01/08 02:28:05;;;;;;;;;;;;;;;16.66;46.35;100000.34;5027465;28;19917;-71
2022/01/08 02:30:31;;;;;;;;;;;;;;;16.58;46.56;99995.88;5014905;28;20074;-71
2022/01/08 02:32:56;;;;;;;;;;;;;;;16.65;46.39;99991.25;4998619;28;20000;-71
2022/01/08 02:35:22;;;;;;;;;;;;;;;16.68;46.38;99983.41;4998519;28;19964;-71
2022/01/08 02:37:48;;;;;;;;;;;;;;;16.58;46.53;99980.13;4998483;28;19932;-78
2022/01/08 02:40:14;;;;;;;;;;;;;;;16.54;46.91;99973.75;5016406;28;19918;-71
2022/01/08 02:42:50;;;;;;;;;;;;;;;16.59;46.80;99962.41;5016330;28;19964;-71
2022/01/08 02:45:16;;;;;;;;;;;;;;;16.77;46.41;99956.38;5015774;28;19937;-71
2022/01/08 02:47:42;;;;;;;;;;;;;;;16.86;46.22;99948.63;5016033;28;19917;-71
2022/01/08 02:50:07;;;;;;;;;;;;;;;16.90;45.89;99927.38;5015886;28;20269;-71
2022/01/08 02:52:33;;;;;;;;;;;;;;;16.92;45.87;99922.28;5015798;28;19964;-71
2022/01/08 02:54:58;;;;;;;;;;;;;;;16.67;46.46;99904.59;5015978;28;19924;-71
2022/01/08 02:57:24;;;;;;;;;;;;;;;16.49;46.87;99896.88;5015780;28;19964;-71
2022/01/08 02:59:49;;;;;;;;;;;;;;;16.70;46.41;99904.69;5015701;28;19917;-71
2022/01/08 03:02:15;;;;;;;;;;;;;;;16.79;46.26;99891.38;4997597;28;20048;-72
2022/01/08 03:04:40;;;;;;;;;;;;;;;16.93;45.93;99879.75;5015590;28;19917;-71
2022/01/08 03:07:06;;;;;;;;;;;;;;;16.62;46.62;99880.88;5015510;28;20479;-71
2022/01/08 03:09:35;;;;;;;;;;;;;;;16.60;46.76;99881.25;5015477;28;19921;-71
2022/01/08 03:12:01;;;;;;;;;;;;;;;16.28;47.82;99857.97;5015501;28;19941;-71
2022/01/08 03:14:26;;;;;;;;;;;;;;;16.72;46.83;99855.44;5015500;28;20339;-71
2022/01/08 03:16:52;;;;;;;;;;;;;;;16.83;46.32;99836.25;5015522;28;19964;-77
2022/01/08 03:19:17;;;;;;;;;;;;;;;16.74;46.86;99831.03;5015270;28;20281;-71
2022/01/08 03:21:51;;;;;;;;;;;;;;;16.65;46.93;99836.00;4997644;28;20024;-71
2022/01/08 03:24:25;;;;;;;;;;;;;;;16.91;46.37;99824.91;4997641;28;19918;-71
2022/01/08 03:26:50;;;;;;;;;;;;;;;16.87;46.58;99817.78;5015227;28;19918;-71
2022/01/08 03:29:16;;;;;;;;;;;;;;;16.87;46.68;99801.22;4997554;28;19924;-72
2022/01/08 03:31:41;;;;;;;;;;;;;;;17.07;46.19;99813.63;5015078;28;20274;-74
2022/01/08 03:34:07;;;;;;;;;;;;;;;16.95;46.42;99782.78;4997374;28;19960;-71
2022/01/08 03:36:32;;;;;;;;;;;;;;;16.97;46.47;99788.69;5015099;28;19918;-71
2022/01/08 03:38:58;;;;;;;;;;;;;;;16.97;46.63;99777.66;5014956;28;19921;-71
2022/01/08 03:41:24;;;;;;;;;;;;;;;16.90;46.65;99756.31;5014622;28;20019;-71
2022/01/08 03:43:50;;;;;;;;;;;;;;;17.06;46.55;99743.06;5014914;28;20000;-72
2022/01/08 03:46:19;;;;;;;;;;;;;;;16.99;46.62;99731.94;5014527;28;19933;-71
2022/01/08 03:48:48;;;;;;;;;;;;;;;17.24;45.94;99703.78;5014794;28;19918;-71
2022/01/08 03:51:14;;;;;;;;;;;;;;;17.20;46.13;99703.75;4997229;28;19921;-71
2022/01/08 03:53:39;;;;;;;;;;;;;;;16.98;46.80;99696.47;5014769;28;19925;-71
2022/01/08 03:56:06;;;;;;;;;;;;;;;17.10;46.39;99688.69;5014609;28;19998;-71
2022/01/08 03:58:33;;;;;;;;;;;;;;;16.98;46.92;99688.19;5014582;28;19926;-71
2022/01/08 04:00:59;;;;;;;;;;;;;;;17.12;46.49;99680.81;5014605;28;19925;-72
2022/01/08 04:03:24;;;;;;;;;;;;;;;17.01;46.89;99666.16;5014574;28;19913;-71
2022/01/08 04:05:50;;;;;;;;;;;;;;;17.07;46.78;99652.78;5014667;28;19917;-71
2022/01/08 04:08:17;;;;;;;;;;;;;;;17.37;46.12;99658.09;5014385;28;19924;-71
2022/01/08 04:10:43;;;;;;;;;;;;;;;17.16;46.65;99654.03;4996772;28;20384;-71
2022/01/08 04:13:13;;;;;;;;;;;;;;;17.16;46.81;99639.47;5014375;28;19972;-71
2022/01/08 04:15:42;;;;;;;;;;;;;;;17.45;45.93;99638.44;5014294;28;19952;-71
2022/01/08 04:18:08;;;;;;;;;;;;;;;17.28;46.31;99625.31;5014182;28;19968;-71
2022/01/08 04:20:47;;;;;;;;;;;;;;;17.40;46.10;99619.50;4996685;28;19918;-71
2022/01/08 04:23:17;;;;;;;;;;;;;;;17.46;46.02;99582.06;5014356;28;20295;-71
2022/01/08 04:25:42;;;;;;;;;;;;;;;17.43;46.28;99593.06;5014124;28;19924;-73
2022/01/08 04:28:08;;;;;;;;;;;;;;;17.41;46.38;99578.88;5014026;28;19921;-71
2022/01/08 04:30:33;;;;;;;;;;;;;;;17.43;46.44;99582.81;5014339;28;19921;-71
2022/01/08 04:32:59;;;;;;;;;;;;;;;17.54;46.02;99571.03;5014002;28;20304;-71
2022/01/08 04:35:24;;;;;;;;;;;;;;;17.61;45.80;99560.81;5013965;28;20288;-71
2022/01/08 04:37:50;;;;;;;;;;;;;;;17.46;46.33;99551.69;5013900;28;19917;-71
2022/01/08 04:40:15;;;;;;;;;;;;;;;17.40;46.61;99541.38;5013927;28;19952;-71
2022/01/08 04:42:41;;;;;;;;;;;;;;;17.47;46.49;99544.97;4996184;28;19925;-71
2022/01/08 04:45:06;;;;;;;;;;;;;;;17.63;46.03;99530.03;5013583;28;20008;-71
2022/01/08 04:47:32;;;;;;;;;;;;;;;17.43;46.77;99535.88;5013789;28;20380;-71
2022/01/08 04:49:57;;;;;;;;;;;;;;;17.55;46.60;99517.38;5013743;28;19921;-71
2022/01/08 04:52:24;;;;;;;;;;;;;;;17.41;47.03;99521.66;5012995;28;19921;-71
2022/01/08 04:54:50;;;;;;;;;;;;;;;17.65;46.39;99505.56;4995899;28;19925;-71
2022/01/08 04:57:15;;;;;;;;;;;;;;;17.85;45.76;99497.75;4996055;28;19921;-71
2022/01/08 04:59:41;;;;;;;;;;;;;;;17.75;46.22;99488.25;5013664;28;19917;-71
2022/01/08 05:02:07;;;;;;;;;;;;;;;17.69;46.43;99500.84;5013456;28;20562;-71
2022/01/08 05:04:32;;;;;;;;;;;;;;;17.81;46.20;99481.16;4995861;28;19953;-71
2022/01/08 05:06:57;;;;;;;;;;;;;;;17.87;46.01;99478.81;4995842;28;20403;-72
2022/01/08 05:09:23;;;;;;;;;;;;;;;17.84;46.24;99458.28;5013436;28;19918;-71
2022/01/08 05:11:48;;;;;;;;;;;;;;;17.54;47.12;99464.13;4995774;28;19964;-71
2022/01/08 05:14:14;;;;;;;;;;;;;;;17.72;47.02;99453.13;5013430;28;20377;-71
2022/01/08 05:16:42;;;;;;;;;;;;;;;17.57;47.23;99438.47;4995654;28;20331;-71
2022/01/08 05:19:07;;;;;;;;;;;;;;;17.85;46.47;99434.22;4995627;28;19956;-71
2022/01/08 05:21:37;;;;;;;;;;;;;;;17.66;47.24;99433.34;5013136;28;19969;-71
2022/01/08 05:24:02;;;;;;;;;;;;;;;17.72;47.04;99434.59;5013095;28;20376;-71
2022/01/08 05:26:28;;;;;;;;;;;;;;;17.71;46.96;99410.91;5012022;28;20009;-71
2022/01/08 05:28:53;;;;;;;;;;;;;;;17.78;46.98;99418.41;5013205;28;19922;-71
2022/01/08 05:31:21;;;;;;;;;;;;;;;17.87;46.74;99421.56;4995649;28;19970;-71
2022/01/08 05:33:47;;;;;;;;;;;;;;;17.88;46.64;99392.75;4995511;28;20016;-71
2022/01/08 05:36:13;;;;;;;;;;;;;;;17.54;47.68;99386.00;4995447;28;19917;-71
2022/01/08 05:38:38;;;;;;;;;;;;;;;17.54;48.02;99395.06;4995496;28;19924;-71
2022/01/08 05:41:04;;;;;;;;;;;;;;;17.81;47.04;99390.00;5012633;28;19918;-71
2022/01/08 05:43:30;;;;;;;;;;;;;;;17.97;46.67;99373.00;5012952;28;19918;-71
2022/01/08 05:45:56;;;;;;;;;;;;;;;17.83;47.15;99353.66;5012583;28;19972;-71
2022/01/08 05:48:22;;;;;;;;;;;;;;;17.78;47.44;99351.31;5012065;28;19980;-71
2022/01/08 05:50:49;;;;;;;;;;;;;;;17.63;47.75;99339.44;5012742;28;19921;-71
2022/01/08 05:53:19;;;;;;;;;;;;;;;17.82;47.33;99328.03;5012892;28;19928;-71
2022/01/08 05:55:44;;;;;;;;;;;;;;;17.69;47.78;99333.16;5012782;28;19925;-71
2022/01/08 05:58:10;;;;;;;;;;;;;;;17.61;48.01;99339.06;5012934;28;19922;-71
2022/01/08 06:00:35;;;;;;;;;;;;;;;17.87;47.48;99335.13;4995322;28;19923;-71
2022/01/08 06:03:01;;;;;;;;;;;;;;;17.81;47.67;99314.59;5013089;28;19924;-71
2022/01/08 06:05:27;;;;;;;;;;;;;;;17.80;47.70;99316.59;5016627;28;19972;-71
2022/01/08 06:07:53;;;;;;;;;;;;;;;17.80;47.83;99310.28;4999091;28;19917;-71
2022/01/08 06:10:19;;;;;;;;;;;;;;;18.05;47.10;99305.47;5015413;28;20303;-71
2022/01/08 06:12:45;;;;;;;;;;;;;;;17.90;47.68;99290.13;5016610;28;19949;-75
2022/01/08 06:15:10;;;;;;;;;;;;;;;17.91;47.82;99292.50;5016585;28;19918;-71
2022/01/08 06:17:36;;;;;;;;;;;;;;;17.79;48.55;99295.66;5016569;28;19917;-71
2022/01/08 06:20:02;;;;;;;;;;;;;;;17.79;48.59;99297.66;5016431;28;19918;-71
2022/01/08 06:22:28;;;;;;;;;;;;;;;18.06;47.96;99293.28;5016378;28;19928;-71
2022/01/08 06:24:53;;;;;;;;;;;;;;;18.32;47.25;99280.94;5016315;28;19917;-73
2022/01/08 06:27:19;;;;;;;;;;;;;;;18.06;48.09;99284.97;5016420;28;19917;-70
2022/01/08 06:29:44;;;;;;;;;;;;;;;18.14;47.95;99277.47;5016306;28;19918;-71
2022/01/08 06:32:10;;;;;;;;;;;;;;;18.28;47.63;99280.94;4998398;28;20295;-71
2022/01/08 06:34:35;;;;;;;;;;;;;;;18.25;47.84;99276.22;5016209;28;19917;-71
2022/01/08 06:37:01;;;;;;;;;;;;;;;18.24;47.79;99282.16;5016158;28;19918;-72
2022/01/08 06:39:28;;;;;;;;;;;;;;;18.21;48.16;99283.75;4998584;28;20316;-71
2022/01/08 06:41:53;;;;;;;;;;;;;;;18.52;47.29;99281.28;4998532;28;20287;-71
2022/01/08 06:44:18;;;;;;;;;;;;;;;18.39;47.68;99274.59;5016231;28;20000;-71
2022/01/08 06:46:44;;;;;;;;;;;;;;;18.46;47.45;99269.84;5015841;28;20372;-71
2022/01/08 06:49:09;;;;;;;;;;;;;;;18.27;48.00;99260.00;5015862;28;19932;-71
2022/01/08 06:51:35;;;;;;;;;;;;;;;18.44;47.80;99250.09;5015878;28;19914;-71
2022/01/08 06:54:00;;;;;;;;;;;;;;;18.37;48.08;99252.88;4998201;28;19992;-72
2022/01/08 06:56:26;;;;;;;;;;;;;;;18.30;48.24;99247.38;5016132;28;19924;-71
2022/01/08 06:58:51;;;;;;;;;;;;;;;18.10;49.05;99260.88;5015676;28;20461;-71
2022/01/08 07:01:17;;;;;;;;;;;;;;;18.30;48.63;99275.03;5015723;28;19925;-72
2022/01/08 07:03:42;;;;;;;;;;;;;;;17.88;50.12;99276.69;5015759;28;20426;-71
2022/01/08 07:06:08;;;;;;;;;;;;;;;17.77;50.46;99287.00;5015498;28;19921;-71
2022/01/08 07:08:35;;;;;;;;;;;;;;;17.58;51.07;99279.84;4997985;28;19971;-71
2022/01/08 07:11:00;;;;;;;;;;;;;;;17.80;50.04;99271.59;5015551;28;20029;-71
2022/01/08 07:13:26;;;;;;;;;;;;;;;17.58;50.86;99271.56;5015324;28;20004;-71
2022/01/08 07:15:51;;;;;;;;;;;;;;;17.96;49.69;99274.72;5014724;28;19999;-71
2022/01/08 07:18:17;;;;;;;;;;;;;;;17.94;49.53;99277.09;5015436;28;19917;-71
2022/01/08 07:20:42;;;;;;;;;;;;;;;17.97;49.75;99284.56;4997781;28;19917;-71
2022/01/08 07:23:08;;;;;;;;;;;;;;;17.81;49.80;99273.16;5015316;28;19922;-71
2022/01/08 07:25:33;;;;;;;;;;;;;;;18.07;49.32;99253.38;5015294;28;20269;-71
2022/01/08 07:27:59;;;;;;;;;;;;;;;18.27;48.51;99237.91;5015248;28;19925;-71
2022/01/08 07:30:24;;;;;;;;;;;;;;;18.21;48.46;99239.53;5015154;28;19925;-71
2022/01/08 07:32:51;;;;;;;;;;;;;;;18.27;48.07;99232.38;5015370;28;19924;-71
2022/01/08 07:35:19;;;;;;;;;;;;;;;18.29;48.12;99235.53;5015082;28;20291;-71
2022/01/08 07:37:45;;;;;;;;;;;;;;;18.36;47.74;99225.63;4997518;28;20441;-71
2022/01/08 07:40:11;;;;;;;;;;;;;;;17.96;48.32;99233.25;5015265;28;20008;-72
2022/01/08 07:42:37;;;;;;;;;;;;;;;17.60;48.40;99233.28;5014947;28;19956;-71
2022/01/08 07:45:03;;;;;;;;;;;;;;;17.19;49.22;99241.22;5014611;28;19956;-71
2022/01/08 07:47:29;;;;;;;;;;;;;;;17.02;49.24;99242.00;5014858;28;19925;-71
2022/01/08 07:49:54;;;;;;;;;;;;;;;17.64;47.57;99247.91;5014811;28;19918;-71
2022/01/08 07:52:20;;;;;;;;;;;;;;;17.04;47.90;99258.94;5014826;28;19963;-71
2022/01/08 07:54:45;;;;;;;;;;;;;;;16.92;47.47;99249.06;5014626;28;19960;-71
2022/01/08 07:57:11;;;;;;;;;;;;;;;16.95;46.24;99259.31;5014722;28;19917;-71
2022/01/08 07:59:36;;;;;;;;;;;;;;;17.02;45.43;99264.06;5014071;28;19918;-71
2022/01/08 08:02:02;;;;;;;;;;;;;;;16.63;45.34;99267.50;5013965;28;20360;-71
2022/01/08 08:04:27;;;;;;;;;;;;;;;17.10;43.86;99271.16;5014537;28;19971;-71
2022/01/08 08:06:53;;;;;;;;;;;;;;;16.64;44.84;99261.59;5014478;28;20277;-71
2022/01/08 08:09:18;;;;;;;;;;;;;;;17.34;43.39;99269.63;5014457;28;19980;-71
2022/01/08 08:11:44;;;;;;;;;;;;;;;16.95;44.51;99280.59;5014532;28;20304;-71
2022/01/08 08:14:09;;;;;;;;;;;;;;;16.71;44.73;99282.13;5014208;28;19924;-71
2022/01/08 08:16:35;;;;;;;;;;;;;;;17.33;43.71;99287.38;5014248;28;19917;-71
2022/01/08 08:19:00;;;;;;;;;;;;;;;17.17;44.32;99291.28;5014304;28;19991;-71
2022/01/08 08:21:26;;;;;;;;;;;;;;;17.30;44.39;99299.19;5014226;28;20447;-71
2022/01/08 08:23:51;;;;;;;;;;;;;;;16.88;44.09;99281.38;5014192;28;19973;-71
2022/01/08 08:26:17;;;;;;;;;;;;;;;16.80;43.57;99279.78;5013711;28;20299;-71
2022/01/08 08:28:43;;;;;;;;;;;;;;;16.99;42.67;99281.38;5013388;28;19924;-71
2022/01/08 08:31:10;;;;;;;;;;;;;;;16.97;42.08;99264.44;5014061;28;19932;-71
2022/01/08 08:33:35;;;;;;;;;;;;;;;17.27;41.38;99245.56;5013917;28;19918;-71
2022/01/08 08:36:01;;;;;;;;;;;;;;;17.28;41.12;99241.59;5013984;28;19940;-71
2022/01/08 08:38:26;;;;;;;;;;;;;;;17.17;40.83;99230.56;5014171;28;19968;-71
2022/01/08 08:40:52;;;;;;;;;;;;;;;17.33;39.74;99212.81;5013854;28;20336;-71
2022/01/08 08:43:19;;;;;;;;;;;;;;;17.45;40.11;99228.97;5013857;28;20060;-71
2022/01/08 08:45:45;;;;;;;;;;;;;;;17.14;40.17;99238.84;5013476;28;19922;-71
2022/01/08 08:48:10;;;;;;;;;;;;;;;17.13;39.90;99238.03;5013650;28;19925;-71
2022/01/08 08:50:36;;;;;;;;;;;;;;;16.78;40.74;99247.09;5013622;28;19918;-71
2022/01/08 08:53:01;;;;;;;;;;;;;;;16.87;40.26;99249.47;5013768;28;19917;-71
2022/01/08 08:55:27;;;;;;;;;;;;;;;16.99;40.12;99245.53;5013606;28;20376;-71
2022/01/08 08:57:52;;;;;;;;;;;;;;;16.78;40.54;99238.00;5013629;28;19953;-78
2022/01/08 09:00:19;;;;;;;;;;;;;;;16.26;41.44;99245.69;4995932;28;19921;-73
2022/01/08 09:02:44;;;;;;;;;;;;;;;16.71;40.80;99235.25;5022108;28;19921;-77
2022/01/08 09:05:10;;;;;;;;;;;;;;;16.59;41.02;99239.09;5021478;28;19923;-75
2022/01/08 09:07:35;;;;;;;;;;;;;;;16.60;40.82;99235.94;5005425;28;20338;-72
2022/01/08 09:10:04;;;;;;;;;;;;;;;16.35;41.33;99237.84;5003615;28;20425;-72
2022/01/08 09:12:29;;;;;;;;;;;;;;;16.89;40.13;99222.25;5021649;28;20008;-73
2022/01/08 09:14:55;;;;;;;;;;;;;;;16.58;40.67;99202.47;5022992;28;20355;-73
2022/01/08 09:17:21;;;;;;;;;;;;;;;16.79;40.29;99207.28;5020667;28;19921;-73
2022/01/08 09:19:46;;;;;;;;;;;;;;;16.57;40.34;99203.66;5021926;28;19972;-73
2022/01/08 09:22:12;;;;;;;;;;;;;;;16.72;40.26;99210.03;5013968;28;19980;-73
2022/01/08 09:24:38;;;;;;;;;;;;;;;16.74;40.12;99212.38;5013332;28;20370;-72
2022/01/08 09:27:04;;;;;;;;;;;;;;;16.81;39.86;99215.16;5015304;28;19922;-72
2022/01/08 09:29:29;;;;;;;;;;;;;;;16.83;40.07;99237.63;5020763;28;20007;-74
2022/01/08 09:31:55;;;;;;;;;;;;;;;16.65;40.22;99235.59;5002364;28;20064;-71
2022/01/08 09:34:20;;;;;;;;;;;;;;;16.79;39.92;99259.69;5013249;28;19962;-75
2022/01/08 09:36:46;;;;;;;;;;;;;;;16.62;40.35;99258.44;4995686;28;19917;-76
2022/01/08 09:39:12;;;;;;;;;;;;;;;16.85;39.68;99257.31;5012850;28;19923;-75
2022/01/08 09:41:38;;;;;;;;;;;;;;;16.70;39.99;99248.25;4995477;28;19921;-75
2022/01/08 09:44:03;;;;;;;;;;;;;;;16.90;39.54;99240.38;5013146;28;19917;-76
2022/01/08 09:46:29;;;;;;;;;;;;;;;16.84;39.67;99247.47;5012891;28;20306;-75
2022/01/08 09:48:54;;;;;;;;;;;;;;;16.70;40.04;99252.94;5013046;28;19933;-76
2022/01/08 09:51:20;;;;;;;;;;;;;;;16.69;40.17;99238.38;5013118;28;20334;-75
2022/01/08 09:53:46;;;;;;;;;;;;;;;16.29;40.66;99245.69;5013061;28;19921;-76
2022/01/08 09:56:11;;;;;;;;;;;;;;;16.61;40.14;99254.06;5013091;28;19972;-76
2022/01/08 09:58:37;;;;;;;;;;;;;;;16.69;40.07;99254.91;5013029;28;20394;-76
2022/01/08 10:01:02;;;;;;;;;;;;;;;16.76;40.16;99254.94;5012887;28;20334;-76
2022/01/08 10:03:33;;;;;;;;;;;;;;;16.64;40.29;99249.75;4995407;28;19935;-76
2022/01/08 10:05:59;;;;;;;;;;;;;;;16.40;40.58;99234.72;4995208;28;20500;-76
2022/01/08 10:08:29;;;;;;;;;;;;;;;16.59;40.27;99233.59;5012947;28;19917;-76
2022/01/08 10:10:58;;;;;;;;;;;;;;;16.72;40.15;99245.09;5013029;28;19914;-76
2022/01/08 10:13:33;;;;;;;;;;;;;;;16.67;40.18;99251.72;5012718;28;19918;-76
2022/01/08 10:18:45;;;;;;;;;;;;;;;16.75;40.07;99266.38;5012868;28;20348;-76
2022/01/08 10:21:21;;;;;;;;;;;;;;;16.63;40.33;99256.47;4995336;28;20284;-76
2022/01/08 10:23:48;;;;;;;;;;;;;;;16.73;39.98;99252.97;5012746;28;20005;-76
2022/01/08 10:26:16;;;;;;;;;;;;;;;16.53;40.47;99252.47;5012682;28;20365;-76
2022/01/08 10:28:42;;;;;;;;;;;;;;;16.67;40.23;99251.72;5012674;28;20261;-76
2022/01/08 10:31:09;;;;;;;;;;;;;;;16.51;40.55;99248.53;5012665;28;19944;-76
2022/01/08 10:33:34;;;;;;;;;;;;;;;16.62;40.19;99258.44;5012661;28;19918;-76
2022/01/08 10:36:00;;;;;;;;;;;;;;;16.72;39.94;99262.44;5014479;28;20279;-76
2022/01/08 10:38:29;;;;;;;;;;;;;;;16.81;39.90;99268.34;5032241;28;19983;-77
2022/01/08 10:40:55;;;;;;;;;;;;;;;17.02;39.58;99258.56;5032284;28;19917;-83
2022/01/08 10:43:25;;;;;;;;;;;;;;;16.89;39.92;99260.88;5032288;28;20039;-75
2022/01/08 10:45:51;;;;;;;;;;;;;;;16.98;39.79;99271.53;5032080;28;19921;-76
2022/01/08 10:48:29;;;;;;;;;;;;;;;16.85;40.18;99273.88;5032183;28;19925;-75
2022/01/08 10:51:07;;;;;;;;;;;;;;;16.93;39.97;99294.81;5031720;28;19962;-78
2022/01/08 10:53:49;;;;;;;;;;;;;;;17.05;39.54;99279.81;5024884;28;20387;-76
2022/01/08 10:56:25;;;;;;;;;;;;;;;16.88;39.83;99273.09;5020398;28;19925;-77
2022/01/08 10:58:54;;;;;;;;;;;;;;;16.76;40.04;99273.44;5021606;28;19933;-76
2022/01/08 11:01:36;;;;;;;;;;;;;;;16.92;39.83;99279.41;5022698;28;19917;-76
2022/01/08 11:04:01;;;;;;;;;;;;;;;17.18;39.32;99279.06;5014177;28;20649;-76
2022/01/08 11:06:26;;;;;;;;;;;;;;;17.29;39.41;99273.53;5023192;28;20008;-76
2022/01/08 11:09:02;;;;;;;;;;;;;;;17.38;39.18;99282.25;5007443;28;20367;-76
2022/01/08 11:11:32;;;;;;;;;;;;;;;17.20;39.45;99273.94;5016666;28;19929;-77
2022/01/08 11:14:07;;;;;;;;;;;;;;;17.17;39.57;99285.78;5005136;28;20712;-76
2022/01/08 11:16:32;;;;;;;;;;;;;;;17.13;39.63;99276.69;5003574;28;19983;-74
2022/01/08 11:19:07;;;;;;;;;;;;;;;17.35;39.35;99279.47;5005949;28;19921;-80
2022/01/08 11:21:33;;;;;;;;;;;;;;;17.16;39.76;99284.19;5022806;28;20645;-75
2022/01/08 11:23:59;;;;;;;;;;;;;;;17.35;39.85;99282.22;5009468;28;19917;-76
2022/01/08 11:26:25;;;;;;;;;;;;;;;16.52;40.70;99275.72;4991165;28;19936;-81
2022/01/08 11:28:52;;;;;;;;;;;;;;;17.14;39.51;99281.03;5007152;28;19960;-77
2022/01/08 11:31:20;;;;;;;;;;;;;;;17.07;39.29;99289.28;5001521;28;19932;-76
2022/01/08 11:33:49;;;;;;;;;;;;;;;17.27;39.17;99286.16;5006665;28;20411;-75
2022/01/08 11:36:15;;;;;;;;;;;;;;;17.08;39.31;99277.09;5017692;28;19917;-76
2022/01/08 11:38:43;;;;;;;;;;;;;;;17.13;39.28;99273.13;5026303;28;20391;-83
2022/01/08 11:41:09;;;;;;;;;;;;;;;17.23;39.19;99277.09;5025277;28;19924;-76
2022/01/08 11:43:35;;;;;;;;;;;;;;;16.74;39.87;99275.81;5024044;28;19929;-76
2022/01/08 11:46:07;;;;;;;;;;;;;;;16.94;39.04;99268.78;5024408;28;19921;-76
2022/01/08 11:48:44;;;;;;;;;;;;;;;17.04;39.03;99269.97;5024285;28;19936;-76
2022/01/08 11:51:17;;;;;;;;;;;;;;;16.76;39.38;99262.41;5022344;28;19917;-76
2022/01/08 11:53:46;;;;;;;;;;;;;;;17.18;38.65;99273.53;5030723;28;20671;-83
2022/01/08 11:56:21;;;;;;;;;;;;;;;16.91;39.16;99266.78;5034881;28;19970;-76
2022/01/08 11:59:00;;;;;;;;;;;;;;;17.29;38.45;99253.44;5034621;28;19917;-76
2022/01/08 12:01:26;;;;;;;;;;;;;;;17.32;38.58;99249.91;5000479;28;19939;-80
2022/01/08 12:03:52;;;;;;;;;;;;;;;16.96;39.12;99247.09;5016718;28;19996;-75
2022/01/08 12:06:32;;;;;;;;;;;;;;;17.23;38.64;99249.47;5033669;28;20402;-76
2022/01/08 12:09:24;;;;;;;;;;;;;;;16.86;39.41;99243.16;5034396;28;19921;-85
2022/01/08 12:11:52;;;;;;;;;;;;;;;17.10;38.81;99252.66;5033198;28;20375;-77
2022/01/08 12:14:28;;;;;;;;;;;;;;;16.67;39.63;99245.44;5032841;28;19921;-76
2022/01/08 12:16:57;;;;;;;;;;;;;;;16.31;40.34;99237.81;5014560;28;19979;-75
2022/01/08 12:19:41;;;;;;;;;;;;;;;17.05;39.00;99236.47;5044629;28;19920;-76
2022/01/08 12:22:16;;;;;;;;;;;;;;;17.03;38.86;99227.00;5032651;28;20736;-77
2022/01/08 12:24:41;;;;;;;;;;;;;;;16.72;39.15;99232.09;5015806;28;19924;-75
2022/01/08 12:27:19;;;;;;;;;;;;;;;16.70;39.07;99239.16;5033090;28;20388;-77
2022/01/08 12:29:44;;;;;;;;;;;;;;;16.05;39.25;99235.34;5012883;28;19913;-75
2022/01/08 12:32:36;;;;;;;;;;;;;;;16.75;38.32;99239.56;5014162;28;19925;-75
2022/01/08 12:35:35;;;;;;;;;;;;;;;16.79;38.16;99239.59;5053108;28;19933;-76
2022/01/08 12:38:01;;;;;;;;;;;;;;;16.42;38.40;99237.09;5013700;28;19961;-75
2022/01/08 12:40:38;;;;;;;;;;;;;;;16.13;38.49;99230.66;5013492;28;19955;-75
2022/01/08 12:43:19;;;;;;;;;;;;;;;16.04;38.25;99229.06;5019671;28;20008;-75
2022/01/08 12:45:47;;;;;;;;;;;;;;;16.27;38.24;99226.00;5015302;28;19921;-75
2022/01/08 12:48:13;;;;;;;;;;;;;;;16.37;38.26;99219.72;5015316;28;19917;-76
2022/01/08 12:50:51;;;;;;;;;;;;;;;16.49;37.93;99206.78;5029340;28;19960;-75
2022/01/08 12:53:24;;;;;;;;;;;;;;;16.56;37.60;99215.88;5033272;28;19917;-84
2022/01/08 12:55:55;;;;;;;;;;;;;;;16.49;37.93;99202.06;5027228;28;19948;-75
2022/01/08 12:58:25;;;;;;;;;;;;;;;16.53;37.91;99211.13;5033005;28;19940;-76
2022/01/08 13:01:00;;;;;;;;;;;;;;;16.60;37.70;99205.63;5015415;28;20012;-83
2022/01/08 13:03:30;;;;;;;;;;;;;;;16.60;37.73;99199.31;5033084;28;20008;-83
2022/01/08 13:06:00;;;;;;;;;;;;;;;16.36;37.62;99204.38;5015441;28;19918;-75
2022/01/08 13:08:26;;;;;;;;;;;;;;;16.45;37.48;99212.28;5010947;28;19917;-77